sensor_id;sensor_type;location;lat;lon;timestamp;pressure;altitude;pressure_sealevel;temperature;humidity
6694;BME280;3384;42.628;23.380;2023-09-12T00:00:44;94380.25;;;15.77;100.00
6694;BME280;3384;42.628;23.380;2023-09-12T00:03:11;94382.03;;;15.73;100.00
6694;BME280;3384;42.628;23.380;2023-09-12T00:05:38;94383.63;;;15.94;100.00
6694;BME280;3384;42.628;23.380;2023-09-12T00:08:05;94378.50;;;15.81;100.00
6694;BME280;3384;42.628;23.380;2023-09-12T00:10:32;94382.28;;;15.59;100.00
6694;BME280;3384;42.628;23.380;2023-09-12T00:13:00;94375.81;;;15.52;100.00
6694;BME280;3384;42.628;23.380;2023-09-12T00:15:28;94378.72;;;15.47;100.00
6694;BME280;3384;42.628;23.380;2023-09-12T00:17:55;94385.53;;;15.94;100.00
6694;BME280;3384;42.628;23.380;2023-09-12T00:20:21;94379.06;;;15.66;100.00
6694;BME280;3384;42.628;23.380;2023-09-12T00:22:48;94391.25;;;15.72;100.00
6694;BME280;3384;42.628;23.380;2023-09-12T00:25:15;94372.59;;;15.79;100.00
6694;BME280;3384;42.628;23.380;2023-09-12T00:27:42;94383.56;;;15.82;100.00
6694;BME280;3384;42.628;23.380;2023-09-12T00:30:11;94396.00;;;15.75;100.00
6694;BME280;3384;42.628;23.380;2023-09-12T00:32:38;94390.94;;;15.94;100.00
6694;BME280;3384;42.628;23.380;2023-09-12T00:35:05;94387.50;;;15.85;100.00
6694;BME280;3384;42.628;23.380;2023-09-12T00:37:32;94389.88;;;15.86;100.00
6694;BME280;3384;42.628;23.380;2023-09-12T00:39:59;94383.94;;;15.72;100.00
6694;BME280;3384;42.628;23.380;2023-09-12T00:42:26;94378.94;;;15.83;100.00
6694;BME280;3384;42.628;23.380;2023-09-12T00:44:53;94384.28;;;15.91;100.00
6694;BME280;3384;42.628;23.380;2023-09-12T00:47:22;94390.75;;;15.99;100.00
6694;BME280;3384;42.628;23.380;2023-09-12T00:49:50;94384.41;;;15.95;100.00
6694;BME280;3384;42.628;23.380;2023-09-12T00:52:18;94395.88;;;15.92;100.00
6694;BME280;3384;42.628;23.380;2023-09-12T00:54:46;94385.59;;;16.06;100.00
6694;BME280;3384;42.628;23.380;2023-09-12T00:57:14;94396.75;;;16.04;100.00
6694;BME280;3384;42.628;23.380;2023-09-12T00:59:40;94393.13;;;16.00;100.00
6694;BME280;3384;42.628;23.380;2023-09-12T01:02:07;94401.81;;;16.06;100.00
6694;BME280;3384;42.628;23.380;2023-09-12T01:04:36;94403.34;;;15.95;100.00
6694;BME280;3384;42.628;23.380;2023-09-12T01:07:04;94398.13;;;15.90;100.00
6694;BME280;3384;42.628;23.380;2023-09-12T01:09:31;94397.78;;;15.91;100.00
6694;BME280;3384;42.628;23.380;2023-09-12T01:11:58;94403.84;;;15.68;100.00
6694;BME280;3384;42.628;23.380;2023-09-12T01:14:25;94408.50;;;15.59;100.00
6694;BME280;3384;42.628;23.380;2023-09-12T01:16:52;94403.03;;;15.67;100.00
6694;BME280;3384;42.628;23.380;2023-09-12T01:19:19;94400.81;;;15.90;100.00
6694;BME280;3384;42.628;23.380;2023-09-12T01:22:03;94406.81;;;16.16;100.00
6694;BME280;3384;42.628;23.380;2023-09-12T01:24:57;94410.25;;;16.04;100.00
6694;BME280;3384;42.628;23.380;2023-09-12T01:27:30;94402.16;;;15.84;100.00
6694;BME280;3384;42.628;23.380;2023-09-12T01:30:02;94420.72;;;15.85;100.00
6694;BME280;3384;42.628;23.380;2023-09-12T01:32:31;94410.97;;;15.93;100.00
6694;BME280;3384;42.628;23.380;2023-09-12T01:34:58;94404.88;;;15.55;100.00
6694;BME280;3384;42.628;23.380;2023-09-12T01:37:25;94409.03;;;15.73;100.00
6694;BME280;3384;42.628;23.380;2023-09-12T01:39:52;94412.03;;;15.80;100.00
6694;BME280;3384;42.628;23.380;2023-09-12T01:42:21;94409.56;;;15.66;100.00
6694;BME280;3384;42.628;23.380;2023-09-12T01:44:50;94415.88;;;15.50;100.00
6694;BME280;3384;42.628;23.380;2023-09-12T01:47:21;94430.69;;;15.35;100.00
6694;BME280;3384;42.628;23.380;2023-09-12T01:49:51;94420.59;;;15.82;100.00
6694;BME280;3384;42.628;23.380;2023-09-12T01:52:19;94417.78;;;15.49;100.00
6694;BME280;3384;42.628;23.380;2023-09-12T01:54:47;94413.72;;;15.64;100.00
6694;BME280;3384;42.628;23.380;2023-09-12T01:57:16;94411.94;;;15.68;100.00
6694;BME280;3384;42.628;23.380;2023-09-12T01:59:46;94414.72;;;15.59;100.00
6694;BME280;3384;42.628;23.380;2023-09-12T02:02:14;94427.25;;;15.64;100.00
6694;BME280;3384;42.628;23.380;2023-09-12T02:04:41;94412.47;;;15.61;100.00
6694;BME280;3384;42.628;23.380;2023-09-12T02:07:08;94411.69;;;15.61;100.00
6694;BME280;3384;42.628;23.380;2023-09-12T02:09:35;94419.84;;;15.73;100.00
6694;BME280;3384;42.628;23.380;2023-09-12T02:12:01;94428.53;;;15.58;100.00
6694;BME280;3384;42.628;23.380;2023-09-12T02:14:28;94426.50;;;15.55;100.00
6694;BME280;3384;42.628;23.380;2023-09-12T02:16:55;94426.00;;;15.61;100.00
6694;BME280;3384;42.628;23.380;2023-09-12T02:19:23;94429.75;;;15.69;100.00
6694;BME280;3384;42.628;23.380;2023-09-12T02:21:50;94423.69;;;15.72;100.00
6694;BME280;3384;42.628;23.380;2023-09-12T02:24:17;94431.84;;;15.63;100.00
6694;BME280;3384;42.628;23.380;2023-09-12T02:26:46;94428.53;;;15.58;100.00
6694;BME280;3384;42.628;23.380;2023-09-12T02:29:13;94423.84;;;15.46;100.00
6694;BME280;3384;42.628;23.380;2023-09-12T02:31:40;94427.13;;;15.52;100.00
6694;BME280;3384;42.628;23.380;2023-09-12T02:34:07;94425.09;;;15.49;100.00
6694;BME280;3384;42.628;23.380;2023-09-12T02:36:35;94428.25;;;15.51;100.00
6694;BME280;3384;42.628;23.380;2023-09-12T02:39:02;94434.59;;;15.55;100.00
6694;BME280;3384;42.628;23.380;2023-09-12T02:41:29;94417.19;;;15.44;100.00
6694;BME280;3384;42.628;23.380;2023-09-12T02:43:56;94418.75;;;15.45;100.00
6694;BME280;3384;42.628;23.380;2023-09-12T02:46:23;94427.72;;;15.28;100.00
6694;BME280;3384;42.628;23.380;2023-09-12T02:48:50;94425.13;;;15.32;100.00
6694;BME280;3384;42.628;23.380;2023-09-12T02:51:16;94422.50;;;15.23;100.00
6694;BME280;3384;42.628;23.380;2023-09-12T02:53:45;94428.56;;;15.20;100.00
6694;BME280;3384;42.628;23.380;2023-09-12T02:56:12;94428.84;;;15.36;100.00
6694;BME280;3384;42.628;23.380;2023-09-12T02:58:39;94426.59;;;15.38;100.00
6694;BME280;3384;42.628;23.380;2023-09-12T03:01:05;94423.28;;;15.24;100.00
6694;BME280;3384;42.628;23.380;2023-09-12T03:03:32;94419.69;;;15.11;100.00
6694;BME280;3384;42.628;23.380;2023-09-12T03:06:00;94421.88;;;14.72;100.00
6694;BME280;3384;42.628;23.380;2023-09-12T03:08:28;94427.28;;;14.72;100.00
6694;BME280;3384;42.628;23.380;2023-09-12T03:10:56;94428.41;;;14.71;100.00
6694;BME280;3384;42.628;23.380;2023-09-12T03:13:24;94421.84;;;14.89;100.00
6694;BME280;3384;42.628;23.380;2023-09-12T03:15:51;94427.53;;;14.96;100.00
6694;BME280;3384;42.628;23.380;2023-09-12T03:18:18;94425.31;;;14.98;100.00
6694;BME280;3384;42.628;23.380;2023-09-12T03:20:45;94415.25;;;15.07;100.00
6694;BME280;3384;42.628;23.380;2023-09-12T03:23:12;94424.34;;;14.94;100.00
6694;BME280;3384;42.628;23.380;2023-09-12T03:25:39;94422.59;;;15.06;100.00
6694;BME280;3384;42.628;23.380;2023-09-12T03:28:07;94423.72;;;14.97;100.00
6694;BME280;3384;42.628;23.380;2023-09-12T03:30:35;94426.38;;;15.05;100.00
6694;BME280;3384;42.628;23.380;2023-09-12T03:33:03;94431.13;;;15.08;100.00
6694;BME280;3384;42.628;23.380;2023-09-12T03:35:31;94421.44;;;15.16;100.00
6694;BME280;3384;42.628;23.380;2023-09-12T03:37:59;94433.19;;;15.11;100.00
6694;BME280;3384;42.628;23.380;2023-09-12T03:40:28;94437.94;;;15.14;100.00
6694;BME280;3384;42.628;23.380;2023-09-12T03:42:55;94436.53;;;14.54;100.00
6694;BME280;3384;42.628;23.380;2023-09-12T03:45:23;94438.28;;;14.16;100.00
6694;BME280;3384;42.628;23.380;2023-09-12T03:47:50;94425.88;;;14.57;100.00
6694;BME280;3384;42.628;23.380;2023-09-12T03:50:17;94440.81;;;14.12;100.00
6694;BME280;3384;42.628;23.380;2023-09-12T03:52:44;94433.06;;;13.94;100.00
6694;BME280;3384;42.628;23.380;2023-09-12T03:55:11;94436.41;;;13.99;100.00
6694;BME280;3384;42.628;23.380;2023-09-12T03:57:38;94443.97;;;13.80;100.00
6694;BME280;3384;42.628;23.380;2023-09-12T04:00:06;94438.78;;;13.92;100.00
6694;BME280;3384;42.628;23.380;2023-09-12T04:02:34;94443.81;;;13.76;100.00
6694;BME280;3384;42.628;23.380;2023-09-12T04:05:01;94449.19;;;13.68;100.00
6694;BME280;3384;42.628;23.380;2023-09-12T04:07:28;94445.41;;;13.77;100.00
6694;BME280;3384;42.628;23.380;2023-09-12T04:09:55;94455.56;;;13.89;100.00
6694;BME280;3384;42.628;23.380;2023-09-12T04:12:21;94434.94;;;13.67;100.00
6694;BME280;3384;42.628;23.380;2023-09-12T04:14:49;94444.22;;;13.44;100.00
6694;BME280;3384;42.628;23.380;2023-09-12T04:17:16;94440.94;;;13.64;100.00
6694;BME280;3384;42.628;23.380;2023-09-12T04:19:44;94438.41;;;13.59;100.00
6694;BME280;3384;42.628;23.380;2023-09-12T04:22:11;94443.19;;;13.62;100.00
6694;BME280;3384;42.628;23.380;2023-09-12T04:24:38;94444.13;;;13.75;100.00
6694;BME280;3384;42.628;23.380;2023-09-12T04:27:05;94437.91;;;13.57;100.00
6694;BME280;3384;42.628;23.380;2023-09-12T04:29:32;94452.63;;;13.51;100.00
6694;BME280;3384;42.628;23.380;2023-09-12T04:31:59;94443.31;;;13.66;100.00
6694;BME280;3384;42.628;23.380;2023-09-12T04:34:26;94445.38;;;13.60;100.00
6694;BME280;3384;42.628;23.380;2023-09-12T04:36:54;94445.03;;;13.53;100.00
6694;BME280;3384;42.628;23.380;2023-09-12T04:39:21;94449.50;;;13.58;100.00
6694;BME280;3384;42.628;23.380;2023-09-12T04:41:48;94443.63;;;13.64;100.00
6694;BME280;3384;42.628;23.380;2023-09-12T04:44:15;94447.28;;;13.68;100.00
6694;BME280;3384;42.628;23.380;2023-09-12T04:46:42;94460.28;;;13.66;100.00
6694;BME280;3384;42.628;23.380;2023-09-12T04:49:08;94453.00;;;13.75;100.00
6694;BME280;3384;42.628;23.380;2023-09-12T04:51:35;94456.66;;;13.71;100.00
6694;BME280;3384;42.628;23.380;2023-09-12T04:54:04;94448.91;;;13.87;100.00
6694;BME280;3384;42.628;23.380;2023-09-12T04:56:31;94453.34;;;14.08;100.00
6694;BME280;3384;42.628;23.380;2023-09-12T04:58:57;94448.28;;;14.07;100.00
6694;BME280;3384;42.628;23.380;2023-09-12T05:01:24;94442.25;;;13.93;100.00
6694;BME280;3384;42.628;23.380;2023-09-12T05:03:51;94456.03;;;14.17;100.00
6694;BME280;3384;42.628;23.380;2023-09-12T05:06:18;94453.97;;;13.97;100.00
6694;BME280;3384;42.628;23.380;2023-09-12T05:08:45;94447.97;;;14.34;100.00
6694;BME280;3384;42.628;23.380;2023-09-12T05:11:13;94457.00;;;14.46;100.00
6694;BME280;3384;42.628;23.380;2023-09-12T05:13:41;94459.38;;;14.56;100.00
6694;BME280;3384;42.628;23.380;2023-09-12T05:16:08;94464.16;;;14.42;100.00
6694;BME280;3384;42.628;23.380;2023-09-12T05:18:34;94459.38;;;14.48;100.00
6694;BME280;3384;42.628;23.380;2023-09-12T05:21:01;94460.94;;;14.66;100.00
6694;BME280;3384;42.628;23.380;2023-09-12T05:23:32;94470.78;;;14.62;100.00
6694;BME280;3384;42.628;23.380;2023-09-12T05:25:59;94466.94;;;14.71;100.00
6694;BME280;3384;42.628;23.380;2023-09-12T05:28:27;94462.94;;;14.94;100.00
6694;BME280;3384;42.628;23.380;2023-09-12T05:30:54;94464.25;;;14.71;100.00
6694;BME280;3384;42.628;23.380;2023-09-12T05:33:21;94479.31;;;14.89;100.00
6694;BME280;3384;42.628;23.380;2023-09-12T05:35:47;94457.78;;;15.18;100.00
6694;BME280;3384;42.628;23.380;2023-09-12T05:38:14;94467.44;;;15.19;100.00
6694;BME280;3384;42.628;23.380;2023-09-12T05:40:41;94469.34;;;15.36;100.00
6694;BME280;3384;42.628;23.380;2023-09-12T05:43:08;94471.97;;;15.53;100.00
6694;BME280;3384;42.628;23.380;2023-09-12T05:45:42;94485.19;;;15.46;100.00
6694;BME280;3384;42.628;23.380;2023-09-12T05:48:09;94479.50;;;15.68;100.00
6694;BME280;3384;42.628;23.380;2023-09-12T05:50:36;94487.63;;;15.68;100.00
6694;BME280;3384;42.628;23.380;2023-09-12T05:53:03;94473.06;;;15.81;100.00
6694;BME280;3384;42.628;23.380;2023-09-12T05:55:30;94474.44;;;15.87;100.00
6694;BME280;3384;42.628;23.380;2023-09-12T05:57:56;94473.63;;;15.95;100.00
6694;BME280;3384;42.628;23.380;2023-09-12T06:00:23;94470.53;;;16.05;100.00
6694;BME280;3384;42.628;23.380;2023-09-12T06:02:54;94481.53;;;16.00;100.00
6694;BME280;3384;42.628;23.380;2023-09-12T06:05:21;94474.53;;;16.19;100.00
6694;BME280;3384;42.628;23.380;2023-09-12T06:07:50;94470.66;;;16.08;100.00
6694;BME280;3384;42.628;23.380;2023-09-12T06:10:17;94483.47;;;16.20;100.00
6694;BME280;3384;42.628;23.380;2023-09-12T06:12:44;94487.81;;;16.33;100.00
6694;BME280;3384;42.628;23.380;2023-09-12T06:15:10;94481.41;;;16.37;100.00
6694;BME280;3384;42.628;23.380;2023-09-12T06:17:37;94470.13;;;16.56;100.00
6694;BME280;3384;42.628;23.380;2023-09-12T06:20:11;94487.16;;;16.36;100.00
6694;BME280;3384;42.628;23.380;2023-09-12T06:22:38;94479.16;;;16.60;100.00
6694;BME280;3384;42.628;23.380;2023-09-12T06:25:08;94477.66;;;16.71;100.00
6694;BME280;3384;42.628;23.380;2023-09-12T06:27:37;94485.97;;;16.66;100.00
6694;BME280;3384;42.628;23.380;2023-09-12T06:30:04;94490.38;;;16.71;100.00
6694;BME280;3384;42.628;23.380;2023-09-12T06:32:33;94476.63;;;16.76;100.00
6694;BME280;3384;42.628;23.380;2023-09-12T06:35:00;94484.22;;;16.82;100.00
6694;BME280;3384;42.628;23.380;2023-09-12T06:37:28;94488.69;;;16.99;100.00
6694;BME280;3384;42.628;23.380;2023-09-12T06:39:55;94489.97;;;17.13;100.00
6694;BME280;3384;42.628;23.380;2023-09-12T06:42:22;94494.34;;;17.06;100.00
6694;BME280;3384;42.628;23.380;2023-09-12T06:44:49;94488.50;;;17.16;100.00
6694;BME280;3384;42.628;23.380;2023-09-12T06:47:16;94496.31;;;17.29;100.00
6694;BME280;3384;42.628;23.380;2023-09-12T06:49:43;94498.09;;;17.25;100.00
6694;BME280;3384;42.628;23.380;2023-09-12T06:52:09;94483.00;;;17.36;100.00
6694;BME280;3384;42.628;23.380;2023-09-12T06:54:40;94487.97;;;17.34;100.00
6694;BME280;3384;42.628;23.380;2023-09-12T06:57:10;94500.56;;;17.51;100.00
6694;BME280;3384;42.628;23.380;2023-09-12T06:59:37;94495.69;;;17.44;100.00
6694;BME280;3384;42.628;23.380;2023-09-12T07:02:04;94489.03;;;17.66;100.00
6694;BME280;3384;42.628;23.380;2023-09-12T07:04:30;94492.22;;;17.68;99.86
6694;BME280;3384;42.628;23.380;2023-09-12T07:06:57;94494.56;;;18.17;95.73
6694;BME280;3384;42.628;23.380;2023-09-12T07:09:24;94510.41;;;18.03;95.57
6694;BME280;3384;42.628;23.380;2023-09-12T07:11:52;94482.38;;;17.99;94.78
6694;BME280;3384;42.628;23.380;2023-09-12T07:14:22;94498.28;;;18.37;90.27
6694;BME280;3384;42.628;23.380;2023-09-12T07:16:50;94515.09;;;18.42;90.96
6694;BME280;3384;42.628;23.380;2023-09-12T07:19:17;94501.00;;;18.25;87.85
6694;BME280;3384;42.628;23.380;2023-09-12T07:21:44;94513.97;;;18.31;86.26
6694;BME280;3384;42.628;23.380;2023-09-12T07:34:03;94497.06;;;18.62;84.60
6694;BME280;3384;42.628;23.380;2023-09-12T07:52:19;94516.06;;;19.29;78.28
6694;BME280;3384;42.628;23.380;2023-09-12T07:54:59;94508.09;;;19.52;76.51
6694;BME280;3384;42.628;23.380;2023-09-12T07:57:28;94495.63;;;19.66;75.14
6694;BME280;3384;42.628;23.380;2023-09-12T08:00:04;94510.38;;;19.81;73.85
6694;BME280;3384;42.628;23.380;2023-09-12T08:02:35;94480.31;;;19.58;75.25
6694;BME280;3384;42.628;23.380;2023-09-12T08:14:24;94491.06;;;19.55;74.24
6694;BME280;3384;42.628;23.380;2023-09-12T08:22:33;94498.59;;;20.23;71.14
6694;BME280;3384;42.628;23.380;2023-09-12T08:25:00;94489.22;;;20.21;70.57
6694;BME280;3384;42.628;23.380;2023-09-12T08:27:27;94498.88;;;20.18;71.35
6694;BME280;3384;42.628;23.380;2023-09-12T08:29:55;94494.56;;;20.02;71.59
6694;BME280;3384;42.628;23.380;2023-09-12T08:32:27;94509.63;;;20.46;70.97
6694;BME280;3384;42.628;23.380;2023-09-12T08:34:57;94489.34;;;20.43;70.84
6694;BME280;3384;42.628;23.380;2023-09-12T08:37:24;94492.56;;;20.68;68.72
6694;BME280;3384;42.628;23.380;2023-09-12T08:39:52;94491.63;;;20.60;67.90
6694;BME280;3384;42.628;23.380;2023-09-12T08:42:22;94485.13;;;20.65;68.33
6694;BME280;3384;42.628;23.380;2023-09-12T08:44:50;94476.78;;;20.58;68.25
6694;BME280;3384;42.628;23.380;2023-09-12T08:47:19;94485.13;;;20.65;68.25
6694;BME280;3384;42.628;23.380;2023-09-12T08:49:49;94468.47;;;20.51;70.65
6694;BME280;3384;42.628;23.380;2023-09-12T08:52:18;94466.63;;;20.74;69.03
6694;BME280;3384;42.628;23.380;2023-09-12T08:54:45;94466.91;;;20.88;68.86
6694;BME280;3384;42.628;23.380;2023-09-12T08:57:12;94482.19;;;21.11;66.70
6694;BME280;3384;42.628;23.380;2023-09-12T08:59:43;94479.09;;;21.13;65.25
6694;BME280;3384;42.628;23.380;2023-09-12T09:02:13;94485.22;;;21.06;65.31
6694;BME280;3384;42.628;23.380;2023-09-12T09:04:43;94477.09;;;21.29;65.58
6694;BME280;3384;42.628;23.380;2023-09-12T09:07:13;94471.44;;;21.41;64.89
6694;BME280;3384;42.628;23.380;2023-09-12T09:09:41;94473.63;;;21.32;64.54
6694;BME280;3384;42.628;23.380;2023-09-12T09:12:08;94475.50;;;21.50;63.41
6694;BME280;3384;42.628;23.380;2023-09-12T09:14:38;94470.31;;;21.42;63.38
6694;BME280;3384;42.628;23.380;2023-09-12T09:17:05;94466.69;;;21.57;63.61
6694;BME280;3384;42.628;23.380;2023-09-12T09:19:44;94475.69;;;21.80;62.92
6694;BME280;3384;42.628;23.380;2023-09-12T09:22:11;94466.25;;;21.78;62.71
6694;BME280;3384;42.628;23.380;2023-09-12T09:24:38;94470.06;;;21.96;61.98
6694;BME280;3384;42.628;23.380;2023-09-12T09:27:06;94461.09;;;21.95;60.84
6694;BME280;3384;42.628;23.380;2023-09-12T09:29:45;94463.91;;;21.76;61.26
6694;BME280;3384;42.628;23.380;2023-09-12T09:32:17;94444.72;;;21.95;60.58
6694;BME280;3384;42.628;23.380;2023-09-12T09:34:45;94450.66;;;22.01;59.39
6694;BME280;3384;42.628;23.380;2023-09-12T09:37:12;94449.28;;;22.14;58.92
6694;BME280;3384;42.628;23.380;2023-09-12T09:39:41;94454.03;;;22.17;59.05
6694;BME280;3384;42.628;23.380;2023-09-12T09:42:10;94428.56;;;22.09;59.05
6694;BME280;3384;42.628;23.380;2023-09-12T09:44:37;94435.03;;;22.27;57.76
6694;BME280;3384;42.628;23.380;2023-09-12T09:47:05;94439.13;;;22.40;57.22
6694;BME280;3384;42.628;23.380;2023-09-12T09:49:32;94458.78;;;22.49;57.27
6694;BME280;3384;42.628;23.380;2023-09-12T09:52:03;94439.78;;;22.30;56.88
6694;BME280;3384;42.628;23.380;2023-09-12T09:54:30;94444.44;;;22.30;56.76
6694;BME280;3384;42.628;23.380;2023-09-12T09:56:59;94438.41;;;22.43;56.06
6694;BME280;3384;42.628;23.380;2023-09-12T09:59:28;94437.00;;;22.53;54.72
6694;BME280;3384;42.628;23.380;2023-09-12T10:01:57;94432.00;;;22.32;54.75
6694;BME280;3384;42.628;23.380;2023-09-12T10:04:27;94437.28;;;22.48;54.32
6694;BME280;3384;42.628;23.380;2023-09-12T10:06:56;94433.91;;;22.58;53.93
6694;BME280;3384;42.628;23.380;2023-09-12T10:09:27;94429.03;;;22.70;53.59
6694;BME280;3384;42.628;23.380;2023-09-12T10:11:55;94428.22;;;22.70;54.14
6694;BME280;3384;42.628;23.380;2023-09-12T10:14:26;94426.66;;;22.69;53.23
6694;BME280;3384;42.628;23.380;2023-09-12T10:17:01;94418.28;;;22.88;52.85
6694;BME280;3384;42.628;23.380;2023-09-12T10:19:34;94418.75;;;22.93;52.26
6694;BME280;3384;42.628;23.380;2023-09-12T10:22:08;94423.59;;;23.07;51.93
6694;BME280;3384;42.628;23.380;2023-09-12T10:24:39;94416.59;;;23.09;51.67
6694;BME280;3384;42.628;23.380;2023-09-12T10:27:06;94420.50;;;23.12;51.15
6694;BME280;3384;42.628;23.380;2023-09-12T10:29:34;94413.16;;;23.19;50.81
6694;BME280;3384;42.628;23.380;2023-09-12T10:32:04;94417.53;;;23.24;51.14
6694;BME280;3384;42.628;23.380;2023-09-12T10:34:34;94414.47;;;23.29;51.99
6694;BME280;3384;42.628;23.380;2023-09-12T10:37:04;94401.84;;;23.21;52.87
6694;BME280;3384;42.628;23.380;2023-09-12T10:39:32;94415.19;;;23.22;52.51
6694;BME280;3384;42.628;23.380;2023-09-12T10:42:04;94402.09;;;23.42;52.53
6694;BME280;3384;42.628;23.380;2023-09-12T10:44:32;94384.19;;;23.51;52.77
6694;BME280;3384;42.628;23.380;2023-09-12T10:47:00;94401.56;;;23.73;53.87
6694;BME280;3384;42.628;23.380;2023-09-12T10:49:28;94382.81;;;23.75;53.02
6694;BME280;3384;42.628;23.380;2023-09-12T10:51:56;94393.31;;;23.69;51.94
6694;BME280;3384;42.628;23.380;2023-09-12T10:54:25;94384.97;;;23.52;52.16
6694;BME280;3384;42.628;23.380;2023-09-12T10:57:07;94382.72;;;23.64;52.44
6694;BME280;3384;42.628;23.380;2023-09-12T10:59:34;94379.72;;;23.80;52.79
6694;BME280;3384;42.628;23.380;2023-09-12T11:02:26;94383.59;;;23.75;52.01
6694;BME280;3384;42.628;23.380;2023-09-12T11:04:54;94379.34;;;23.81;51.85
6694;BME280;3384;42.628;23.380;2023-09-12T11:07:30;94374.31;;;23.87;52.00
6694;BME280;3384;42.628;23.380;2023-09-12T11:10:22;94368.41;;;23.81;51.71
6694;BME280;3384;42.628;23.380;2023-09-12T11:12:51;94366.03;;;23.83;50.60
6694;BME280;3384;42.628;23.380;2023-09-12T11:15:20;94370.09;;;24.00;50.30
6694;BME280;3384;42.628;23.380;2023-09-12T11:17:48;94372.56;;;24.23;50.44
6694;BME280;3384;42.628;23.380;2023-09-12T11:20:19;94354.19;;;24.20;51.04
6694;BME280;3384;42.628;23.380;2023-09-12T11:22:47;94366.66;;;24.14;51.36
6694;BME280;3384;42.628;23.380;2023-09-12T11:25:19;94354.88;;;24.06;49.26
6694;BME280;3384;42.628;23.380;2023-09-12T11:28:06;94366.72;;;24.21;47.55
6694;BME280;3384;42.628;23.380;2023-09-12T11:30:57;94354.94;;;24.17;46.70
6694;BME280;3384;42.628;23.380;2023-09-12T11:33:29;94358.88;;;24.19;46.37
6694;BME280;3384;42.628;23.380;2023-09-12T11:35:57;94350.72;;;24.33;46.62
6694;BME280;3384;42.628;23.380;2023-09-12T11:38:30;94363.66;;;24.36;46.12
6694;BME280;3384;42.628;23.380;2023-09-12T11:41:09;94358.22;;;24.43;45.69
6694;BME280;3384;42.628;23.380;2023-09-12T11:46:15;94336.41;;;24.64;46.51
6694;BME280;3384;42.628;23.380;2023-09-12T11:48:47;94333.66;;;24.64;46.98
6694;BME280;3384;42.628;23.380;2023-09-12T11:51:16;94352.88;;;24.75;46.89
6694;BME280;3384;42.628;23.380;2023-09-12T11:53:54;94341.50;;;24.76;46.14
6694;BME280;3384;42.628;23.380;2023-09-12T11:56:28;94336.03;;;24.76;45.96
6694;BME280;3384;42.628;23.380;2023-09-12T11:58:59;94345.06;;;24.77;45.57
6694;BME280;3384;42.628;23.380;2023-09-12T12:01:32;94329.78;;;24.76;45.14
6694;BME280;3384;42.628;23.380;2023-09-12T12:03:59;94339.56;;;24.77;45.68
6694;BME280;3384;42.628;23.380;2023-09-12T12:06:27;94324.69;;;24.81;45.06
6694;BME280;3384;42.628;23.380;2023-09-12T12:08:58;94338.44;;;24.95;45.16
6694;BME280;3384;42.628;23.380;2023-09-12T12:11:27;94326.72;;;25.05;44.82
6694;BME280;3384;42.628;23.380;2023-09-12T12:13:58;94317.28;;;24.99;44.99
6694;BME280;3384;42.628;23.380;2023-09-12T12:22:19;94319.66;;;25.15;44.69
6694;BME280;3384;42.628;23.380;2023-09-12T12:24:54;94319.31;;;25.44;45.21
6694;BME280;3384;42.628;23.380;2023-09-12T12:50:12;94307.53;;;25.30;44.08
6694;BME280;3384;42.628;23.380;2023-09-12T13:10:16;94293.78;;;25.82;43.69
6694;BME280;3384;42.628;23.380;2023-09-12T13:12:57;94294.94;;;25.85;43.76
6694;BME280;3384;42.628;23.380;2023-09-12T13:15:26;94283.97;;;25.85;43.39
6694;BME280;3384;42.628;23.380;2023-09-12T13:17:56;94288.66;;;25.95;43.37
6694;BME280;3384;42.628;23.380;2023-09-12T13:20:26;94293.38;;;25.91;43.52
6694;BME280;3384;42.628;23.380;2023-09-12T13:36:04;94290.22;;;25.89;43.05
6694;BME280;3384;42.628;23.380;2023-09-12T13:38:39;94291.41;;;25.88;42.96
6694;BME280;3384;42.628;23.380;2023-09-12T13:41:19;94270.59;;;25.90;42.97
6694;BME280;3384;42.628;23.380;2023-09-12T13:44:00;94276.09;;;26.04;42.80
6694;BME280;3384;42.628;23.380;2023-09-12T13:46:33;94272.97;;;26.02;42.78
6694;BME280;3384;42.628;23.380;2023-09-12T13:49:21;94287.09;;;25.97;43.00
6694;BME280;3384;42.628;23.380;2023-09-12T13:51:54;94272.94;;;26.06;43.14
6694;BME280;3384;42.628;23.380;2023-09-12T13:59:32;94271.75;;;26.10;43.00
6694;BME280;3384;42.628;23.380;2023-09-12T14:02:03;94276.09;;;26.04;42.71
6694;BME280;3384;42.628;23.380;2023-09-12T14:04:33;94272.19;;;26.02;42.27
6694;BME280;3384;42.628;23.380;2023-09-12T14:07:19;94282.00;;;25.96;42.21
6694;BME280;3384;42.628;23.380;2023-09-12T14:10:02;94284.31;;;26.11;42.75
6694;BME280;3384;42.628;23.380;2023-09-12T14:12:31;94275.72;;;26.02;42.85
6694;BME280;3384;42.628;23.380;2023-09-12T14:30:45;94280.44;;;26.02;42.56
6694;BME280;3384;42.628;23.380;2023-09-12T14:33:53;94283.19;;;25.98;42.51
6694;BME280;3384;42.628;23.380;2023-09-12T14:36:27;94274.94;;;25.91;42.19
6694;BME280;3384;42.628;23.380;2023-09-12T14:38:57;94269.44;;;25.91;41.83
6694;BME280;3384;42.628;23.380;2023-09-12T14:41:24;94269.06;;;25.89;42.18
6694;BME280;3384;42.628;23.380;2023-09-12T14:43:55;94271.81;;;26.00;42.32
6694;BME280;3384;42.628;23.380;2023-09-12T14:46:23;94259.63;;;25.97;41.98
6694;BME280;3384;42.628;23.380;2023-09-12T14:48:50;94268.69;;;25.87;42.46
6694;BME280;3384;42.628;23.380;2023-09-12T14:51:17;94267.47;;;25.95;42.63
6694;BME280;3384;42.628;23.380;2023-09-12T14:53:47;94260.44;;;25.94;42.32
6694;BME280;3384;42.628;23.380;2023-09-12T14:56:14;94273.75;;;25.89;42.55
6694;BME280;3384;42.628;23.380;2023-09-12T14:58:46;94263.94;;;25.95;42.09
6694;BME280;3384;42.628;23.380;2023-09-12T15:01:13;94254.94;;;25.91;42.68
6694;BME280;3384;42.628;23.380;2023-09-12T15:03:41;94243.16;;;25.90;42.55
6694;BME280;3384;42.628;23.380;2023-09-12T15:06:08;94253.38;;;25.90;42.66
6694;BME280;3384;42.628;23.380;2023-09-12T15:08:35;94254.53;;;25.82;42.60
6694;BME280;3384;42.628;23.380;2023-09-12T15:11:02;94265.13;;;25.87;41.85
6694;BME280;3384;42.628;23.380;2023-09-12T15:13:29;94270.63;;;26.01;41.88
6694;BME280;3384;42.628;23.380;2023-09-12T15:15:56;94254.56;;;25.75;41.99
6694;BME280;3384;42.628;23.380;2023-09-12T15:18:25;94262.41;;;25.76;41.92